TimeCDT,TemperatureF,Dew PointF,Humidity,Sea Level PressureIn,VisibilityMPH,Wind Direction,Wind SpeedMPH,Gust SpeedMPH,PrecipitationIn,Events,Conditions,WindDirDegrees,DateUTC
12:14 AM,84.2,75.2,74,29.86,10.0,South,5.8,-,N/A,,Clear,190,2013-08-27 05:14:00
12:34 AM,84.2,75.2,74,29.86,10.0,South,5.8,-,N/A,,Clear,180,2013-08-27 05:34:00
12:54 AM,84.2,75.2,74,29.85,10.0,South,10.4,-,N/A,,Clear,190,2013-08-27 05:54:00
1:14 AM,84.2,75.2,74,29.85,10.0,South,6.9,-,N/A,,Clear,190,2013-08-27 06:14:00
1:34 AM,84.2,75.2,74,29.83,10.0,SSW,10.4,-,N/A,,Clear,200,2013-08-27 06:34:00
1:54 AM,84.2,75.2,74,29.83,10.0,South,9.2,-,N/A,,Clear,190,2013-08-27 06:54:00
2:14 AM,84.2,75.2,74,29.82,10.0,SSW,8.1,-,N/A,,Clear,200,2013-08-27 07:14:00
2:33 AM,82.4,75.2,79,29.82,10.0,SSW,8.1,-,N/A,,Clear,210,2013-08-27 07:33:00
2:54 AM,82.4,75.2,79,29.81,10.0,South,8.1,-,N/A,,Clear,190,2013-08-27 07:54:00
3:14 AM,82.4,75.2,79,29.81,10.0,South,6.9,-,N/A,,Clear,190,2013-08-27 08:14:00
3:34 AM,82.4,75.2,79,29.81,10.0,SSW,10.4,-,N/A,,Clear,200,2013-08-27 08:34:00
3:54 AM,82.4,73.4,74,29.81,10.0,SSW,6.9,-,N/A,,Clear,200,2013-08-27 08:54:00
4:13 AM,82.4,73.4,74,29.81,10.0,South,8.1,-,N/A,,Clear,190,2013-08-27 09:13:00
4:34 AM,82.4,73.4,74,29.80,10.0,South,8.1,-,N/A,,Clear,190,2013-08-27 09:34:00
4:54 AM,80.6,73.4,79,29.80,10.0,SSW,6.9,-,N/A,,Clear,200,2013-08-27 09:54:00
5:13 AM,80.6,73.4,79,29.80,10.0,SSW,6.9,-,N/A,,Clear,200,2013-08-27 10:13:00
5:34 AM,80.6,73.4,79,29.80,10.0,South,5.8,-,N/A,,Clear,190,2013-08-27 10:34:00
5:54 AM,80.6,73.4,79,29.81,10.0,SSW,4.6,-,N/A,,Clear,200,2013-08-27 10:54:00
6:13 AM,78.8,73.4,83,29.81,10.0,South,4.6,-,N/A,,Clear,180,2013-08-27 11:13:00
6:34 AM,78.8,73.4,83,29.81,10.0,South,4.6,-,N/A,,Clear,180,2013-08-27 11:34:00
6:50 AM,78.8,73.4,83,29.81,10.0,South,3.5,-,N/A,,Clear,190,2013-08-27 11:50:00
6:54 AM,78.8,73.4,83,29.81,10.0,South,3.5,-,N/A,,Clear,190,2013-08-27 11:54:00
7:45 AM,80.6,73.4,79,29.82,10.0,Calm,Calm,-,N/A,,Clear,0,2013-08-27 12:45:00
8:45 AM,82.4,73.4,74,29.82,10.0,Calm,Calm,-,N/A,,Clear,0,2013-08-27 13:45:00
9:45 AM,84.2,73.4,70,29.82,10.0,WSW,4.6,-,N/A,,Clear,240,2013-08-27 14:45:00
10:45 AM,87.8,73.4,62,29.82,10.0,WSW,3.5,-,N/A,,Clear,240,2013-08-27 15:45:00
11:45 AM,89.6,75.2,62,29.83,10.0,Calm,Calm,-,N/A,,Clear,0,2013-08-27 16:45:00
12:45 PM,91.4,77.0,63,29.82,10.0,NNE,3.5,-,N/A,,Mostly Cloudy,30,2013-08-27 17:45:00
1:45 PM,87.8,77.0,70,29.83,10.0,North,11.5,17.3,N/A,,Mostly Cloudy,10,2013-08-27 18:45:00
2:45 PM,89.6,77.0,66,29.83,10.0,North,11.5,-,N/A,,Mostly Cloudy,360,2013-08-27 19:45:00
3:45 PM,89.6,77.0,66,29.83,10.0,NNE,8.1,-,N/A,,Mostly Cloudy,20,2013-08-27 20:45:00
4:45 PM,91.4,77.0,63,29.83,10.0,North,5.8,-,N/A,,Scattered Clouds,350,2013-08-27 21:45:00
5:45 PM,91.4,75.2,59,29.84,10.0,NNE,8.1,-,N/A,,Scattered Clouds,30,2013-08-27 22:45:00
6:45 PM,89.6,75.2,62,29.85,10.0,NNE,8.1,-,N/A,,Clear,20,2013-08-27 23:45:00
7:45 PM,86.0,75.2,70,29.87,10.0,NNE,8.1,-,N/A,,Clear,20,2013-08-28 00:45:00
8:45 PM,84.2,73.4,70,29.90,10.0,North,8.1,-,N/A,,Clear,10,2013-08-28 01:45:00
9:13 PM,80.6,73.4,79,29.91,10.0,NNE,4.6,-,N/A,,Clear,30,2013-08-28 02:13:00
9:34 PM,80.6,73.4,79,29.91,10.0,NNE,4.6,-,N/A,,Clear,20,2013-08-28 02:34:00
9:45 PM,80.6,73.4,79,29.91,10.0,NNE,5.8,-,N/A,,Clear,20,2013-08-28 02:45:00
9:54 PM,78.8,73.4,83,29.91,10.0,NE,4.6,-,N/A,,Clear,40,2013-08-28 02:54:00
10:13 PM,78.8,73.4,83,29.91,10.0,NNE,3.5,-,N/A,,Clear,30,2013-08-28 03:13:00
10:34 PM,78.8,73.4,83,29.92,10.0,Calm,Calm,-,N/A,,Clear,0,2013-08-28 03:34:00
10:53 PM,77.0,71.6,83,29.92,10.0,Calm,Calm,-,N/A,,Clear,0,2013-08-28 03:53:00
11:14 PM,75.2,71.6,89,29.93,10.0,Calm,Calm,-,N/A,,Clear,0,2013-08-28 04:14:00
11:33 PM,75.2,71.6,89,29.93,10.0,Calm,Calm,-,N/A,,Clear,0,2013-08-28 04:33:00